Terminal Aerodrome Forecast
Issued by NWS Atlanta, GA

Current Version | Previous Version | Text Only | Print | Product List | Glossary On
Versions: 1 2 3 4 5 6 7 8 9 10 11 12 13 14 15 16 17 18 19 20 21 22
000
FTUS42 KFFC 312336
TAFMCN
TAF
KMCN 312336Z 0100/0124 16005KT P6SM VCSH FEW050 SCT090
      TEMPO 0100/0101 VRB15G30KT 5SM TSRA BKN030CB
     FM010100 00000KT P6SM SCT060
     FM010300 03003KT P6SM FEW250
     FM011500 03004KT P6SM FEW040=

USA.gov is the U.S. government's official web portal to all federal, state and local government web resources and services.